• Join FlightAware (Why Join?)
  • Login
  • US Flag 
06:47AM EDT


 

Airport Tracker/Info


-or-


 

Live Flight TrackerFlight Track Log ✈ FIN807 ✈ 17-Nov-2013 ✈ EFHK / HEL - EDDM / MUC

Flight Track Log - Related Links

Times and Time Zones

All times are in EST time to prevent confusion due to time zone crossing. See the FIN807 flight status page for this flight to view local times or setup timezone preferences in your user account.

Time Position Orientation Groundspeed Altitude Reporting Facility
EST Latitude Longitude Course Direction KTS MPH feet Rate Location/Type
09:33AM 60.0785 24.5868 218° Southwest  Level Estimated
09:34AM 59.9987 24.4625 218° Southwest  Level Estimated
09:35AM 59.9188 24.3388 218° Southwest  Level Estimated
09:36AM 59.8346 24.2092 218° Southwest  Level Estimated
09:37AM 59.7502 24.0803 218° Southwest  Level Estimated
09:38AM 59.6657 23.9520 217° Southwest  Level Estimated
09:39AM 59.5811 23.8244 217° Southwest  Level Estimated
09:40AM 59.4963 23.6974 217° Southwest  Level Estimated
09:41AM 59.4115 23.5711 217° Southwest  Level Estimated
09:42AM 59.3265 23.4454 217° Southwest  Level Estimated
09:43AM 59.2414 23.3203 217° Southwest  Level Estimated
09:44AM 59.1562 23.1959 217° Southwest  Level Estimated
09:45AM 59.0708 23.0720 217° Southwest  Level Estimated
09:46AM 58.9853 22.9488 217° Southwest  Level Estimated
09:47AM 58.8998 22.8262 217° Southwest  Level Estimated
09:48AM 58.8141 22.7041 216° Southwest  Level Estimated
09:49AM 58.7282 22.5827 216° Southwest  Level Estimated
09:50AM 58.6423 22.4619 216° Southwest  Level Estimated
09:51AM 58.5563 22.3417 216° Southwest  Level Estimated
09:52AM 58.4701 22.2221 216° Southwest  Level Estimated
09:53AM 58.3839 22.1030 216° Southwest  Level Estimated
09:54AM 58.2975 21.9846 216° Southwest  Level Estimated
09:55AM 58.2110 21.8667 216° Southwest  Level Estimated
09:56AM 58.1244 21.7494 216° Southwest  Level Estimated
09:57AM 58.0378 21.6327 215° Southwest  Level Estimated
09:58AM 57.9510 21.5165 215° Southwest  Level Estimated
09:59AM 57.8640 21.4009 215° Southwest  Level Estimated
10:00AM 57.7770 21.2858 215° Southwest  Level Estimated
10:01AM 57.6899 21.1713 215° Southwest  Level Estimated
10:02AM 57.6027 21.0574 215° Southwest  Level Estimated
10:03AM 57.5154 20.9439 215° Southwest  Level Estimated
10:04AM 57.4280 20.8311 215° Southwest  Level Estimated
10:05AM 57.3404 20.7187 215° Southwest  Level Estimated
10:06AM 57.2528 20.6070 215° Southwest  Level Estimated
10:07AM 57.1651 20.4957 215° Southwest  Level Estimated
10:08AM 57.0773 20.3850 214° Southwest  Level Estimated
10:09AM 56.9894 20.2747 214° Southwest  Level Estimated
10:10AM 56.9014 20.1651 214° Southwest  Level Estimated
10:11AM 56.8133 20.0559 214° Southwest  Level Estimated
10:12AM 56.7251 19.9472 214° Southwest  Level Estimated
10:13AM 56.6368 19.8390 214° Southwest  Level Estimated
10:14AM 56.5484 19.7314 214° Southwest  Level Estimated
10:15AM 56.4599 19.6242 214° Southwest  Level Estimated
10:16AM 56.3713 19.5176 214° Southwest  Level Estimated
10:17AM 56.2827 19.4114 214° Southwest  Level Estimated
10:18AM 56.1939 19.3058 214° Southwest  Level Estimated
10:19AM 56.1051 19.2006 213° Southwest  Level Estimated
10:20AM 56.0161 19.0959 213° Southwest  Level Estimated
10:21AM 55.9271 18.9917 213° Southwest  Level Estimated
10:22AM 55.8380 18.8880 213° Southwest  Level Estimated
10:23AM 55.7488 18.7847 213° Southwest  Level Estimated
10:24AM 55.6595 18.6819 213° Southwest  Level Estimated
10:25AM 55.5702 18.5796 213° Southwest  Level Estimated
10:26AM 55.4807 18.4777 213° Southwest  Level Estimated
10:27AM 55.3912 18.3764 213° Southwest  Level Estimated
10:28AM 55.3016 18.2754 213° Southwest  Level Estimated
10:29AM 55.2118 18.1749 213° Southwest  Level Estimated
10:30AM 55.1221 18.0749 213° Southwest  Level Estimated
10:31AM 55.0322 17.9753 212° Southwest  Level Estimated
10:32AM 54.9422 17.8762 212° Southwest  Level Estimated
10:33AM 54.8522 17.7775 212° Southwest  Level Estimated
10:34AM 54.7621 17.6793 212° Southwest  Level Estimated
10:35AM 54.6719 17.5814 212° Southwest  Level Estimated
10:36AM 54.5817 17.4841 212° Southwest  Level Estimated
10:37AM 54.4913 17.3871 212° Southwest  Level Estimated
10:38AM 54.4009 17.2906 212° Southwest  Level Estimated
10:39AM 54.3104 17.1945 212° Southwest  Level Estimated
10:40AM 54.2198 17.0988 212° Southwest  Level Estimated
10:41AM 54.1292 17.0036 212° Southwest  Level Estimated
10:42AM 54.0385 16.9087 212° Southwest  Level Estimated
10:43AM 53.9477 16.8143 211° Southwest  Level Estimated
10:44AM 53.8568 16.7203 211° Southwest  Level Estimated
10:45AM 53.7659 16.6267 211° Southwest  Level Estimated
10:46AM 53.6748 16.5335 211° Southwest  Level Estimated
10:47AM 53.5837 16.4407 211° Southwest  Level Estimated
10:48AM 53.4926 16.3483 211° Southwest  Level Estimated
10:49AM 53.4013 16.2563 211° Southwest  Level Estimated
10:50AM 53.3101 16.1647 211° Southwest  Level Estimated
10:51AM 53.2187 16.0735 211° Southwest  Level Estimated
10:52AM 53.1272 15.9826 211° Southwest  Level Estimated
10:53AM 53.0357 15.8922 211° Southwest  Level Estimated
10:54AM 52.9441 15.8021 211° Southwest  Level Estimated
10:55AM 52.8525 15.7124 211° Southwest  Level Estimated
10:56AM 52.7608 15.6231 211° Southwest  Level Estimated
10:57AM 52.6690 15.5342 210° Southwest  Level Estimated
10:58AM 52.5772 15.4456 210° Southwest  Level Estimated
10:59AM 52.4852 15.3574 210° Southwest  Level Estimated
11:00AM 52.3933 15.2696 210° Southwest  Level Estimated
11:01AM 52.3012 15.1822 210° Southwest  Level Estimated
11:02AM 52.2091 15.0951 210° Southwest  Level Estimated
11:03AM 52.1170 15.0084 210° Southwest  Level Estimated
11:04AM 52.0247 14.9220 210° Southwest  Level Estimated
11:05AM 51.9324 14.8360 210° Southwest  Level Estimated
11:06AM 51.8401 14.7503 210° Southwest  Level Estimated
11:07AM 51.7547 14.6715 210° Southwest  Level Estimated
11:08AM 51.6693 14.5930 210° Southwest  Level Estimated
11:09AM 51.5838 14.5148 210° Southwest  Level Estimated
11:10AM 51.4983 14.4369 210° Southwest  Level Estimated
11:11AM 51.4128 14.3592 210° Southwest  Level Estimated
11:12AM 51.3271 14.2819 209° Southwest  Level Estimated
11:13AM 51.2415 14.2049 209° Southwest  Level Estimated
11:14AM 51.1557 14.1281 209° Southwest  Level Estimated
11:15AM 51.0700 14.0516 209° Southwest  Level Estimated
11:16AM 50.9841 13.9754 209° Southwest  Level Estimated
11:17AM 50.8983 13.8995 209° Southwest  Level Estimated
11:18AM 50.8124 13.8239 209° Southwest  Level Estimated
11:19AM 50.7264 13.7485 209° Southwest  Level Estimated
11:20AM 50.6404 13.6734 209° Southwest  Level Estimated
11:21AM 50.5543 13.5986 209° Southwest  Level Estimated
11:22AM 50.4682 13.5241 209° Southwest  Level Estimated
11:23AM 50.3820 13.4498 209° Southwest  Level Estimated
11:24AM 50.2958 13.3758 209° Southwest  Level Estimated
11:25AM 50.2096 13.3021 209° Southwest  Level Estimated
11:26AM 50.1233 13.2287 209° Southwest  Level Estimated
11:27AM 50.0370 13.1555 209° Southwest  Level Estimated
11:28AM 49.9506 13.0825 209° Southwest  Level Estimated
11:29AM 49.8641 13.0099 208° Southwest  Level Estimated
11:30AM 49.7777 12.9375 208° Southwest  Level Estimated
11:31AM 49.6911 12.8653 208° Southwest  Level Estimated
11:32AM 49.6046 12.7934 208° Southwest  Level Estimated
11:33AM 49.5180 12.7218 208° Southwest  Level Estimated
11:34AM 49.4313 12.6504 208° Southwest  Level Estimated
11:35AM 49.3446 12.5792 208° Southwest  Level Estimated
11:36AM 49.2579 12.5084 208° Southwest  Level Estimated
11:37AM 49.1711 12.4377 208° Southwest  Level Estimated
11:38AM 49.0842 12.3673 208° Southwest  Level Estimated
11:39AM 48.9974 12.2972 208° Southwest  Level Estimated
11:40AM 48.9104 12.2273 208° Southwest  Level Estimated
11:41AM 48.8235 12.1576 208° Southwest  Level Estimated
11:42AM 48.7365 12.0882 208° Southwest  Level Estimated
11:43AM 48.6494 12.0190 208° Southwest  Level Estimated
11:44AM 48.5624 11.9501 208° Southwest  Level Estimated
11:45AM 48.4752 11.8814 208° Southwest  Level Estimated
11:46AM 48.3881 11.8129 208° Southwest  Level Estimated
11:47AM 48.3538 11.7861 208° Southwest  Level Estimated
11:48AM 48.3538 11.7861 318° Northwest  Level Estimated
11:49AM 48.3538 11.7861 318° Northwest  Level Estimated
11:50AM 48.3538 11.7861 318° Northwest  Level Estimated
11:51AM 48.3538 11.7861 318° Northwest  Level Estimated
11:52AM 48.3538 11.7861 318° Northwest  Level Estimated
11:53AM 48.3538 11.7861 318° Northwest  Level Estimated
11:54AM 48.3538 11.7861 318° Northwest  Level Estimated
11:55AM 48.3538 11.7861 318° Northwest  Level Estimated
11:56AM 48.3538 11.7861 318° Northwest  Level Estimated
11:57AM 48.3538 11.7861 318° Northwest  Level Estimated
11:58AM 48.3538 11.7861 318° Northwest  Level Estimated
11:59AM 48.3538 11.7861 318° Northwest  Level Estimated
12:00PM 48.3538 11.7861 318° Northwest  Level Estimated